sensor_id;sensor_type;location;lat;lon;timestamp;pressure;altitude;pressure_sealevel;temperature;humidity
3590;BME280;1809;48.470;9.226;2022-11-20T00:01:59;96324.66;;;6.01;100.00
3590;BME280;1809;48.470;9.226;2022-11-20T00:04:25;96328.44;;;5.90;100.00
3590;BME280;1809;48.470;9.226;2022-11-20T00:06:50;96333.25;;;5.78;100.00
3590;BME280;1809;48.470;9.226;2022-11-20T00:09:15;96328.50;;;5.75;100.00
3590;BME280;1809;48.470;9.226;2022-11-20T00:11:40;96329.03;;;5.72;100.00
3590;BME280;1809;48.470;9.226;2022-11-20T00:14:06;96325.84;;;5.75;100.00
3590;BME280;1809;48.470;9.226;2022-11-20T00:16:32;96320.78;;;5.78;100.00
3590;BME280;1809;48.470;9.226;2022-11-20T00:18:58;96318.66;;;5.80;100.00
3590;BME280;1809;48.470;9.226;2022-11-20T00:21:26;96325.00;;;5.84;100.00
3590;BME280;1809;48.470;9.226;2022-11-20T00:23:53;96326.88;;;5.84;100.00
3590;BME280;1809;48.470;9.226;2022-11-20T00:26:20;96330.66;;;5.68;100.00
3590;BME280;1809;48.470;9.226;2022-11-20T00:28:51;96326.38;;;5.72;100.00
3590;BME280;1809;48.470;9.226;2022-11-20T00:31:17;96330.34;;;5.74;100.00
3590;BME280;1809;48.470;9.226;2022-11-20T00:33:43;96332.78;;;5.66;100.00
3590;BME280;1809;48.470;9.226;2022-11-20T00:36:11;96330.16;;;5.56;100.00
3590;BME280;1809;48.470;9.226;2022-11-20T00:38:36;96340.75;;;5.61;100.00
3590;BME280;1809;48.470;9.226;2022-11-20T00:41:04;96342.38;;;5.52;100.00
3590;BME280;1809;48.470;9.226;2022-11-20T00:43:30;96336.78;;;5.58;100.00
3590;BME280;1809;48.470;9.226;2022-11-20T00:46:07;96333.34;;;5.53;100.00
3590;BME280;1809;48.470;9.226;2022-11-20T00:48:33;96336.53;;;5.60;100.00
3590;BME280;1809;48.470;9.226;2022-11-20T00:50:58;96341.28;;;5.58;100.00
3590;BME280;1809;48.470;9.226;2022-11-20T00:53:24;96341.25;;;5.68;100.00
3590;BME280;1809;48.470;9.226;2022-11-20T00:55:59;96341.25;;;5.68;100.00
3590;BME280;1809;48.470;9.226;2022-11-20T00:58:29;96334.91;;;5.69;100.00
3590;BME280;1809;48.470;9.226;2022-11-20T01:03:31;96353.50;;;5.49;100.00
3590;BME280;1809;48.470;9.226;2022-11-20T01:06:20;96353.25;;;5.45;100.00
3590;BME280;1809;48.470;9.226;2022-11-20T01:08:47;96356.72;;;5.51;100.00
3590;BME280;1809;48.470;9.226;2022-11-20T01:11:15;96353.50;;;5.49;100.00
3590;BME280;1809;48.470;9.226;2022-11-20T01:13:41;96358.81;;;5.49;100.00
3590;BME280;1809;48.470;9.226;2022-11-20T01:16:14;96353.00;;;5.47;100.00
3590;BME280;1809;48.470;9.226;2022-11-20T01:18:43;96356.16;;;5.54;100.00
3590;BME280;1809;48.470;9.226;2022-11-20T01:21:14;96356.72;;;5.51;100.00
3590;BME280;1809;48.470;9.226;2022-11-20T01:23:41;96357.78;;;5.39;100.00
3590;BME280;1809;48.470;9.226;2022-11-20T01:26:10;96360.69;;;5.43;100.00
3590;BME280;1809;48.470;9.226;2022-11-20T01:28:36;96368.91;;;5.47;100.00
3590;BME280;1809;48.470;9.226;2022-11-20T01:31:14;96374.72;;;5.54;100.00
3590;BME280;1809;48.470;9.226;2022-11-20T01:33:40;96368.38;;;5.50;100.00
3590;BME280;1809;48.470;9.226;2022-11-20T01:36:07;96361.97;;;5.61;100.00
3590;BME280;1809;48.470;9.226;2022-11-20T01:38:32;96365.41;;;5.61;100.00
3590;BME280;1809;48.470;9.226;2022-11-20T01:40:58;96362.22;;;5.64;100.00
3590;BME280;1809;48.470;9.226;2022-11-20T01:43:23;96368.84;;;5.67;100.00
3590;BME280;1809;48.470;9.226;2022-11-20T01:46:05;96359.31;;;5.66;100.00
3590;BME280;1809;48.470;9.226;2022-11-20T01:51:33;96361.72;;;5.57;100.00
3590;BME280;1809;48.470;9.226;2022-11-20T01:54:01;96365.16;;;5.58;100.00
3590;BME280;1809;48.470;9.226;2022-11-20T01:56:28;96366.78;;;5.54;100.00
3590;BME280;1809;48.470;9.226;2022-11-20T01:58:58;96363.06;;;5.50;100.00
3590;BME280;1809;48.470;9.226;2022-11-20T02:01:26;96361.41;;;5.64;100.00
3590;BME280;1809;48.470;9.226;2022-11-20T02:03:51;96363.00;;;5.65;100.00
3590;BME280;1809;48.470;9.226;2022-11-20T02:06:24;96368.34;;;5.55;100.00
3590;BME280;1809;48.470;9.226;2022-11-20T02:08:51;96369.38;;;5.69;100.00
3590;BME280;1809;48.470;9.226;2022-11-20T02:11:17;96364.84;;;5.74;100.00
3590;BME280;1809;48.470;9.226;2022-11-20T02:13:43;96366.16;;;5.77;100.00
3590;BME280;1809;48.470;9.226;2022-11-20T02:16:10;96356.84;;;5.79;100.00
3590;BME280;1809;48.470;9.226;2022-11-20T02:18:37;96360.81;;;5.92;100.00
3590;BME280;1809;48.470;9.226;2022-11-20T02:21:35;96358.13;;;6.02;100.00
3590;BME280;1809;48.470;9.226;2022-11-20T02:24:10;96359.72;;;6.03;100.00
3590;BME280;1809;48.470;9.226;2022-11-20T02:26:52;96355.97;;;6.04;100.00
3590;BME280;1809;48.470;9.226;2022-11-20T02:29:25;96362.28;;;6.18;100.00
3590;BME280;1809;48.470;9.226;2022-11-20T02:31:52;96357.22;;;6.22;100.00
3590;BME280;1809;48.470;9.226;2022-11-20T02:34:19;96363.34;;;6.17;100.00
3590;BME280;1809;48.470;9.226;2022-11-20T02:36:45;96356.41;;;6.21;100.00
3590;BME280;1809;48.470;9.226;2022-11-20T02:39:13;96362.97;;;6.34;100.00
3590;BME280;1809;48.470;9.226;2022-11-20T02:41:38;96361.69;;;6.31;100.00
3590;BME280;1809;48.470;9.226;2022-11-20T02:44:05;96355.50;;;6.41;100.00
3590;BME280;1809;48.470;9.226;2022-11-20T02:46:31;96349.66;;;6.39;100.00
3590;BME280;1809;48.470;9.226;2022-11-20T02:48:57;96364.78;;;6.38;100.00
3590;BME280;1809;48.470;9.226;2022-11-20T02:51:23;96354.19;;;6.38;100.00
3590;BME280;1809;48.470;9.226;2022-11-20T02:53:49;96358.38;;;6.44;100.00
3590;BME280;1809;48.470;9.226;2022-11-20T02:56:14;96359.47;;;6.43;100.00
3590;BME280;1809;48.470;9.226;2022-11-20T02:58:40;96355.47;;;6.46;100.00
3590;BME280;1809;48.470;9.226;2022-11-20T03:01:05;96356.81;;;6.43;100.00
3590;BME280;1809;48.470;9.226;2022-11-20T03:03:30;96358.38;;;6.49;100.00
3590;BME280;1809;48.470;9.226;2022-11-20T03:05:58;96351.47;;;6.48;100.00
3590;BME280;1809;48.470;9.226;2022-11-20T03:08:24;96362.31;;;6.52;100.00
3590;BME280;1809;48.470;9.226;2022-11-20T03:10:49;96350.84;;;6.62;100.00
3590;BME280;1809;48.470;9.226;2022-11-20T03:13:15;96353.00;;;6.60;100.00
3590;BME280;1809;48.470;9.226;2022-11-20T03:15:40;96354.31;;;6.57;100.00
3590;BME280;1809;48.470;9.226;2022-11-20T03:18:05;96345.63;;;6.46;100.00
3590;BME280;1809;48.470;9.226;2022-11-20T03:20:32;96338.78;;;6.40;100.00
3590;BME280;1809;48.470;9.226;2022-11-20T03:22:58;96341.69;;;6.44;100.00
3590;BME280;1809;48.470;9.226;2022-11-20T03:25:23;96352.81;;;6.46;100.00
3590;BME280;1809;48.470;9.226;2022-11-20T03:27:49;96347.75;;;6.44;100.00
3590;BME280;1809;48.470;9.226;2022-11-20T03:30:14;96345.69;;;6.36;100.00
3590;BME280;1809;48.470;9.226;2022-11-20T03:32:40;96350.00;;;6.27;100.00
3590;BME280;1809;48.470;9.226;2022-11-20T03:35:06;96354.31;;;6.18;100.00
3590;BME280;1809;48.470;9.226;2022-11-20T03:37:32;96353.81;;;6.11;100.00
3590;BME280;1809;48.470;9.226;2022-11-20T03:39:57;96361.53;;;6.08;100.00
3590;BME280;1809;48.470;9.226;2022-11-20T03:42:22;96353.34;;;5.99;100.00
3590;BME280;1809;48.470;9.226;2022-11-20T03:45:07;96355.78;;;5.90;100.00
3590;BME280;1809;48.470;9.226;2022-11-20T03:47:32;96360.84;;;5.77;100.00
3590;BME280;1809;48.470;9.226;2022-11-20T03:49:58;96355.00;;;5.80;100.00
3590;BME280;1809;48.470;9.226;2022-11-20T03:52:23;96359.81;;;5.73;100.00
3590;BME280;1809;48.470;9.226;2022-11-20T03:54:48;96366.41;;;5.80;100.00
3590;BME280;1809;48.470;9.226;2022-11-20T03:57:13;96369.84;;;5.91;100.00
3590;BME280;1809;48.470;9.226;2022-11-20T03:59:39;96367.78;;;5.73;100.00
3590;BME280;1809;48.470;9.226;2022-11-20T04:02:04;96376.84;;;5.57;100.00
3590;BME280;1809;48.470;9.226;2022-11-20T04:04:29;96374.94;;;5.67;100.00
3590;BME280;1809;48.470;9.226;2022-11-20T04:06:55;96370.47;;;5.63;100.00
3590;BME280;1809;48.470;9.226;2022-11-20T04:09:20;96373.09;;;5.68;100.00
3590;BME280;1809;48.470;9.226;2022-11-20T04:11:45;96372.53;;;5.71;100.00
3590;BME280;1809;48.470;9.226;2022-11-20T04:14:14;96365.13;;;5.73;100.00
3590;BME280;1809;48.470;9.226;2022-11-20T04:16:40;96365.09;;;5.78;100.00
3590;BME280;1809;48.470;9.226;2022-11-20T04:19:10;96368.50;;;5.88;100.00
3590;BME280;1809;48.470;9.226;2022-11-20T04:21:36;96355.50;;;5.97;100.00
3590;BME280;1809;48.470;9.226;2022-11-20T04:24:02;96362.69;;;5.91;100.00
3590;BME280;1809;48.470;9.226;2022-11-20T04:26:28;96362.88;;;6.10;100.00
3590;BME280;1809;48.470;9.226;2022-11-20T04:28:54;96361.69;;;6.26;100.00
3590;BME280;1809;48.470;9.226;2022-11-20T04:31:22;96358.22;;;6.31;100.00
3590;BME280;1809;48.470;9.226;2022-11-20T04:33:47;96359.56;;;6.28;100.00
3590;BME280;1809;48.470;9.226;2022-11-20T04:36:24;96353.59;;;6.46;100.00
3590;BME280;1809;48.470;9.226;2022-11-20T04:38:53;96352.00;;;6.45;100.00
3590;BME280;1809;48.470;9.226;2022-11-20T04:41:21;96349.88;;;6.47;100.00
3590;BME280;1809;48.470;9.226;2022-11-20T04:43:47;96354.66;;;6.51;100.00
3590;BME280;1809;48.470;9.226;2022-11-20T04:46:13;96356.78;;;6.48;100.00
3590;BME280;1809;48.470;9.226;2022-11-20T04:48:39;96351.41;;;6.59;100.00
3590;BME280;1809;48.470;9.226;2022-11-20T04:51:04;96356.16;;;6.62;100.00
3590;BME280;1809;48.470;9.226;2022-11-20T04:53:30;96355.16;;;6.53;100.00
3590;BME280;1809;48.470;9.226;2022-11-20T04:56:04;96357.56;;;6.49;100.00
3590;BME280;1809;48.470;9.226;2022-11-20T04:58:29;96362.53;;;6.61;100.00
3590;BME280;1809;48.470;9.226;2022-11-20T05:01:05;96360.16;;;6.59;100.00
3590;BME280;1809;48.470;9.226;2022-11-20T05:03:30;96358.63;;;6.53;100.00
3590;BME280;1809;48.470;9.226;2022-11-20T05:05:56;96352.94;;;6.65;100.00
3590;BME280;1809;48.470;9.226;2022-11-20T05:08:24;96357.75;;;6.58;100.00
3590;BME280;1809;48.470;9.226;2022-11-20T05:10:49;96356.09;;;6.67;100.00
3590;BME280;1809;48.470;9.226;2022-11-20T05:13:15;96353.00;;;6.60;100.00
3590;BME280;1809;48.470;9.226;2022-11-20T05:15:40;96361.78;;;6.55;100.00
3590;BME280;1809;48.470;9.226;2022-11-20T05:18:05;96346.13;;;6.54;100.00
3590;BME280;1809;48.470;9.226;2022-11-20T05:20:30;96354.88;;;6.54;100.00
3590;BME280;1809;48.470;9.226;2022-11-20T05:22:57;96349.50;;;6.64;100.00
3590;BME280;1809;48.470;9.226;2022-11-20T05:25:22;96345.78;;;6.60;100.00
3590;BME280;1809;48.470;9.226;2022-11-20T05:27:48;96340.44;;;6.65;100.00
3590;BME280;1809;48.470;9.226;2022-11-20T05:30:13;96347.13;;;6.63;100.00
3590;BME280;1809;48.470;9.226;2022-11-20T05:32:39;96352.19;;;6.59;100.00
3590;BME280;1809;48.470;9.226;2022-11-20T05:35:04;96351.88;;;6.66;100.00
3590;BME280;1809;48.470;9.226;2022-11-20T05:37:30;96357.75;;;6.58;100.00
3590;BME280;1809;48.470;9.226;2022-11-20T05:39:55;96354.06;;;6.59;100.00
3590;BME280;1809;48.470;9.226;2022-11-20T05:42:20;96342.63;;;6.58;100.00
3590;BME280;1809;48.470;9.226;2022-11-20T05:44:58;96344.41;;;6.68;100.00
3590;BME280;1809;48.470;9.226;2022-11-20T05:47:24;96342.94;;;6.52;100.00
3590;BME280;1809;48.470;9.226;2022-11-20T05:49:49;96343.50;;;6.48;100.00
3590;BME280;1809;48.470;9.226;2022-11-20T05:52:15;96344.34;;;6.44;100.00
3590;BME280;1809;48.470;9.226;2022-11-20T05:54:40;96342.97;;;6.46;100.00
3590;BME280;1809;48.470;9.226;2022-11-20T05:57:05;96347.75;;;6.49;100.00
3590;BME280;1809;48.470;9.226;2022-11-20T05:59:31;96351.16;;;6.55;100.00
3590;BME280;1809;48.470;9.226;2022-11-20T06:01:56;96352.25;;;6.49;100.00
3590;BME280;1809;48.470;9.226;2022-11-20T06:04:21;96352.00;;;6.51;100.00
3590;BME280;1809;48.470;9.226;2022-11-20T06:06:47;96352.00;;;6.45;100.00
3590;BME280;1809;48.470;9.226;2022-11-20T06:09:12;96356.28;;;6.41;100.00
3590;BME280;1809;48.470;9.226;2022-11-20T06:11:37;96343.56;;;6.38;100.00
3590;BME280;1809;48.470;9.226;2022-11-20T06:14:02;96332.97;;;6.33;100.00
3590;BME280;1809;48.470;9.226;2022-11-20T06:16:28;96338.53;;;6.37;100.00
3590;BME280;1809;48.470;9.226;2022-11-20T06:18:53;96349.47;;;6.30;100.00
3590;BME280;1809;48.470;9.226;2022-11-20T06:21:20;96341.63;;;6.10;100.00
3590;BME280;1809;48.470;9.226;2022-11-20T06:23:47;96349.59;;;6.10;100.00
3590;BME280;1809;48.470;9.226;2022-11-20T06:26:17;96351.16;;;6.11;100.00
3590;BME280;1809;48.470;9.226;2022-11-20T06:28:43;96346.09;;;6.15;100.00
3590;BME280;1809;48.470;9.226;2022-11-20T06:31:11;96351.72;;;6.08;100.00
3590;BME280;1809;48.470;9.226;2022-11-20T06:33:37;96340.25;;;6.18;100.00
3590;BME280;1809;48.470;9.226;2022-11-20T06:36:03;96346.34;;;6.18;100.00
3590;BME280;1809;48.470;9.226;2022-11-20T06:38:29;96351.34;;;6.25;100.00
3590;BME280;1809;48.470;9.226;2022-11-20T06:40:55;96351.06;;;6.26;100.00
3590;BME280;1809;48.470;9.226;2022-11-20T06:43:21;96344.75;;;6.17;100.00
3590;BME280;1809;48.470;9.226;2022-11-20T06:45:52;96344.28;;;6.10;100.00
3590;BME280;1809;48.470;9.226;2022-11-20T06:48:17;96346.16;;;6.05;100.00
3590;BME280;1809;48.470;9.226;2022-11-20T06:50:43;96350.06;;;6.17;100.00
3590;BME280;1809;48.470;9.226;2022-11-20T06:53:08;96349.50;;;6.20;100.00
3590;BME280;1809;48.470;9.226;2022-11-20T06:55:33;96358.72;;;6.33;100.00
3590;BME280;1809;48.470;9.226;2022-11-20T06:57:59;96362.47;;;6.32;100.00
3590;BME280;1809;48.470;9.226;2022-11-20T07:00:24;96357.97;;;6.27;100.00
3590;BME280;1809;48.470;9.226;2022-11-20T07:02:49;96352.13;;;6.30;100.00
3590;BME280;1809;48.470;9.226;2022-11-20T07:05:15;96354.72;;;6.40;100.00
3590;BME280;1809;48.470;9.226;2022-11-20T07:07:40;96357.88;;;6.42;100.00
3590;BME280;1809;48.470;9.226;2022-11-20T07:10:06;96356.81;;;6.43;100.00
3590;BME280;1809;48.470;9.226;2022-11-20T07:12:31;96359.97;;;6.51;100.00
3590;BME280;1809;48.470;9.226;2022-11-20T07:14:57;96364.19;;;6.52;100.00
3590;BME280;1809;48.470;9.226;2022-11-20T07:17:22;96359.72;;;6.47;100.00
3590;BME280;1809;48.470;9.226;2022-11-20T07:19:47;96361.03;;;6.49;100.00
3590;BME280;1809;48.470;9.226;2022-11-20T07:22:13;96364.63;;;6.64;100.00
3590;BME280;1809;48.470;9.226;2022-11-20T07:24:38;96365.66;;;6.68;100.00
3590;BME280;1809;48.470;9.226;2022-11-20T07:27:04;96370.34;;;6.81;100.00
3590;BME280;1809;48.470;9.226;2022-11-20T07:29:29;96368.22;;;6.83;100.00
3590;BME280;1809;48.470;9.226;2022-11-20T07:31:55;96368.75;;;6.80;100.00
3590;BME280;1809;48.470;9.226;2022-11-20T07:34:21;96373.56;;;6.78;100.00
3590;BME280;1809;48.470;9.226;2022-11-20T07:36:46;96377.97;;;6.92;100.00
3590;BME280;1809;48.470;9.226;2022-11-20T07:39:11;96379.00;;;6.96;100.00
3590;BME280;1809;48.470;9.226;2022-11-20T07:41:37;96380.25;;;7.04;100.00
3590;BME280;1809;48.470;9.226;2022-11-20T07:44:02;96382.16;;;7.03;100.00
3590;BME280;1809;48.470;9.226;2022-11-20T07:46:28;96387.09;;;7.15;100.00
3590;BME280;1809;48.470;9.226;2022-11-20T07:48:53;96379.84;;;7.21;100.00
3590;BME280;1809;48.470;9.226;2022-11-20T07:51:18;96381.28;;;7.08;100.00
3590;BME280;1809;48.470;9.226;2022-11-20T07:53:44;96375.66;;;7.15;100.00
3590;BME280;1809;48.470;9.226;2022-11-20T07:56:09;96381.72;;;7.20;100.00
3590;BME280;1809;48.470;9.226;2022-11-20T07:58:34;96385.97;;;7.21;100.00
3590;BME280;1809;48.470;9.226;2022-11-20T08:01:07;96385.41;;;7.24;100.00
3590;BME280;1809;48.470;9.226;2022-11-20T08:03:33;96378.88;;;7.40;100.00
3590;BME280;1809;48.470;9.226;2022-11-20T08:06:00;96378.25;;;7.48;100.00
3590;BME280;1809;48.470;9.226;2022-11-20T08:08:26;96383.88;;;7.47;100.00
3590;BME280;1809;48.470;9.226;2022-11-20T08:10:51;96386.22;;;7.48;100.00
3590;BME280;1809;48.470;9.226;2022-11-20T08:13:16;96385.78;;;7.65;100.00
3590;BME280;1809;48.470;9.226;2022-11-20T08:16:00;96387.50;;;7.56;100.00
3590;BME280;1809;48.470;9.226;2022-11-20T08:18:26;96386.63;;;7.61;100.00
3590;BME280;1809;48.470;9.226;2022-11-20T08:20:51;96390.81;;;7.67;100.00
3590;BME280;1809;48.470;9.226;2022-11-20T08:23:16;96391.13;;;7.65;100.00
3590;BME280;1809;48.470;9.226;2022-11-20T08:25:42;96382.34;;;7.65;100.00
3590;BME280;1809;48.470;9.226;2022-11-20T08:28:08;96389.75;;;7.68;100.00
3590;BME280;1809;48.470;9.226;2022-11-20T08:30:35;96390.31;;;7.65;100.00
3590;BME280;1809;48.470;9.226;2022-11-20T08:33:06;96404.69;;;7.64;100.00
3590;BME280;1809;48.470;9.226;2022-11-20T08:35:35;96400.91;;;7.70;100.00
3590;BME280;1809;48.470;9.226;2022-11-20T08:38:02;96413.19;;;7.66;100.00
3590;BME280;1809;48.470;9.226;2022-11-20T08:40:28;96399.38;;;7.64;100.00
3590;BME280;1809;48.470;9.226;2022-11-20T08:42:53;96402.34;;;7.57;100.00
3590;BME280;1809;48.470;9.226;2022-11-20T08:45:19;96403.69;;;7.60;100.00
3590;BME280;1809;48.470;9.226;2022-11-20T08:47:45;96400.97;;;7.65;100.00
3590;BME280;1809;48.470;9.226;2022-11-20T08:50:12;96401.69;;;7.70;100.00
3590;BME280;1809;48.470;9.226;2022-11-20T08:52:38;96405.38;;;7.74;100.00
3590;BME280;1809;48.470;9.226;2022-11-20T08:55:04;96417.25;;;7.82;100.00
3590;BME280;1809;48.470;9.226;2022-11-20T08:57:34;96414.94;;;7.99;100.00
3590;BME280;1809;48.470;9.226;2022-11-20T09:00:00;96413.44;;;7.93;100.00
3590;BME280;1809;48.470;9.226;2022-11-20T09:02:26;96405.13;;;7.94;100.00
3590;BME280;1809;48.470;9.226;2022-11-20T09:04:52;96410.91;;;8.01;100.00
3590;BME280;1809;48.470;9.226;2022-11-20T09:07:18;96417.63;;;7.99;100.00
3590;BME280;1809;48.470;9.226;2022-11-20T09:09:44;96417.84;;;8.02;100.00
3590;BME280;1809;48.470;9.226;2022-11-20T09:12:09;96411.94;;;8.05;100.00
3590;BME280;1809;48.470;9.226;2022-11-20T09:14:34;96410.59;;;8.08;100.00
3590;BME280;1809;48.470;9.226;2022-11-20T09:16:59;96407.91;;;8.08;100.00
3590;BME280;1809;48.470;9.226;2022-11-20T09:19:25;96417.28;;;8.05;100.00
3590;BME280;1809;48.470;9.226;2022-11-20T09:21:51;96413.31;;;8.03;100.00
3590;BME280;1809;48.470;9.226;2022-11-20T09:24:16;96416.47;;;8.05;100.00
3590;BME280;1809;48.470;9.226;2022-11-20T09:26:41;96412.91;;;7.91;100.00
3590;BME280;1809;48.470;9.226;2022-11-20T09:29:07;96416.34;;;7.91;100.00
3590;BME280;1809;48.470;9.226;2022-11-20T09:31:32;96419.09;;;7.86;100.00
3590;BME280;1809;48.470;9.226;2022-11-20T09:33:57;96427.66;;;7.83;100.00
3590;BME280;1809;48.470;9.226;2022-11-20T09:36:23;96421.59;;;7.78;100.00
3590;BME280;1809;48.470;9.226;2022-11-20T09:38:48;96431.38;;;7.82;100.00
3590;BME280;1809;48.470;9.226;2022-11-20T09:46:50;96429.19;;;7.37;100.00
3590;BME280;1809;48.470;9.226;2022-11-20T09:51:59;96434.06;;;7.25;100.00
3590;BME280;1809;48.470;9.226;2022-11-20T09:54:34;96450.28;;;7.28;100.00
3590;BME280;1809;48.470;9.226;2022-11-20T09:57:23;96452.31;;;7.36;100.00
3590;BME280;1809;48.470;9.226;2022-11-20T09:59:54;96447.00;;;7.36;100.00
3590;BME280;1809;48.470;9.226;2022-11-20T10:05:20;96448.28;;;7.44;100.00
3590;BME280;1809;48.470;9.226;2022-11-20T10:08:16;96451.75;;;7.39;100.00
3590;BME280;1809;48.470;9.226;2022-11-20T10:13:35;96441.47;;;7.56;100.00
3590;BME280;1809;48.470;9.226;2022-11-20T10:24:28;96444.13;;;7.85;100.00
3590;BME280;1809;48.470;9.226;2022-11-20T10:27:15;96446.03;;;7.80;100.00
3590;BME280;1809;48.470;9.226;2022-11-20T10:30:06;96449.34;;;7.72;100.00
3590;BME280;1809;48.470;9.226;2022-11-20T10:32:50;96447.88;;;7.84;100.00
3590;BME280;1809;48.470;9.226;2022-11-20T10:35:50;96445.25;;;7.79;100.00
3590;BME280;1809;48.470;9.226;2022-11-20T10:38:24;96456.25;;;7.96;100.00
3590;BME280;1809;48.470;9.226;2022-11-20T10:40:53;96453.75;;;8.05;100.00
3590;BME280;1809;48.470;9.226;2022-11-20T10:43:39;96451.28;;;7.90;100.00
3590;BME280;1809;48.470;9.226;2022-11-20T10:46:12;96450.03;;;8.06;100.00
3590;BME280;1809;48.470;9.226;2022-11-20T10:48:42;96451.94;;;8.24;100.00
3590;BME280;1809;48.470;9.226;2022-11-20T10:51:32;96448.09;;;8.11;100.00
3590;BME280;1809;48.470;9.226;2022-11-20T10:54:26;96440.97;;;8.31;100.00
3590;BME280;1809;48.470;9.226;2022-11-20T10:57:01;96443.66;;;8.26;100.00
3590;BME280;1809;48.470;9.226;2022-11-20T11:02:18;96436.84;;;8.38;100.00
3590;BME280;1809;48.470;9.226;2022-11-20T11:04:52;96440.25;;;8.20;100.00
3590;BME280;1809;48.470;9.226;2022-11-20T11:07:38;96440.25;;;8.20;100.00
3590;BME280;1809;48.470;9.226;2022-11-20T11:10:15;96444.53;;;8.21;100.00
3590;BME280;1809;48.470;9.226;2022-11-20T11:12:44;96442.47;;;8.13;100.00
3590;BME280;1809;48.470;9.226;2022-11-20T11:15:14;96440.94;;;8.07;100.00
3590;BME280;1809;48.470;9.226;2022-11-20T11:17:46;96439.97;;;7.98;100.00
3590;BME280;1809;48.470;9.226;2022-11-20T11:20:20;96439.59;;;7.86;100.00
3590;BME280;1809;48.470;9.226;2022-11-20T11:22:54;96434.50;;;7.66;100.00
3590;BME280;1809;48.470;9.226;2022-11-20T11:25:36;96423.94;;;7.55;100.00
3590;BME280;1809;48.470;9.226;2022-11-20T11:28:04;96420.72;;;7.58;100.00
3590;BME280;1809;48.470;9.226;2022-11-20T11:30:42;96420.66;;;7.64;100.00
3590;BME280;1809;48.470;9.226;2022-11-20T11:33:18;96415.81;;;7.71;100.00
3590;BME280;1809;48.470;9.226;2022-11-20T11:35:49;96411.03;;;7.68;100.00
3590;BME280;1809;48.470;9.226;2022-11-20T11:38:22;96403.88;;;7.63;100.00
3590;BME280;1809;48.470;9.226;2022-11-20T11:40:48;96400.50;;;7.57;100.00
3590;BME280;1809;48.470;9.226;2022-11-20T11:43:22;96401.44;;;7.72;100.00
3590;BME280;1809;48.470;9.226;2022-11-20T11:46:34;96407.56;;;7.91;100.00
3590;BME280;1809;48.470;9.226;2022-11-20T11:51:33;96385.78;;;8.13;100.00
3590;BME280;1809;48.470;9.226;2022-11-20T11:54:01;96388.72;;;8.11;100.00
3590;BME280;1809;48.470;9.226;2022-11-20T11:56:28;96388.72;;;8.11;100.00
3590;BME280;1809;48.470;9.226;2022-11-20T11:58:57;96384.03;;;8.03;100.00
3590;BME280;1809;48.470;9.226;2022-11-20T12:01:32;96386.69;;;8.03;100.00
3590;BME280;1809;48.470;9.226;2022-11-20T12:04:08;96381.78;;;8.10;100.00
3590;BME280;1809;48.470;9.226;2022-11-20T12:06:39;96374.75;;;8.19;100.00
3590;BME280;1809;48.470;9.226;2022-11-20T12:09:11;96374.81;;;8.14;100.00
3590;BME280;1809;48.470;9.226;2022-11-20T12:11:54;96371.13;;;8.10;100.00
3590;BME280;1809;48.470;9.226;2022-11-20T12:14:37;96370.66;;;8.27;100.00
3590;BME280;1809;48.470;9.226;2022-11-20T12:17:03;96367.66;;;8.33;100.00
3590;BME280;1809;48.470;9.226;2022-11-20T12:19:31;96368.13;;;8.40;100.00
3590;BME280;1809;48.470;9.226;2022-11-20T12:22:13;96368.69;;;8.56;100.00
3590;BME280;1809;48.470;9.226;2022-11-20T12:30:20;96364.94;;;8.38;100.00
3590;BME280;1809;48.470;9.226;2022-11-20T12:43:27;96358.50;;;8.21;100.00
3590;BME280;1809;48.470;9.226;2022-11-20T12:51:37;96359.97;;;7.66;100.00
3590;BME280;1809;48.470;9.226;2022-11-20T12:57:00;96348.63;;;7.79;100.00
3590;BME280;1809;48.470;9.226;2022-11-20T13:07:21;96352.47;;;7.91;100.00
3590;BME280;1809;48.470;9.226;2022-11-20T13:09:49;96352.13;;;7.98;100.00
3590;BME280;1809;48.470;9.226;2022-11-20T13:12:30;96345.44;;;8.00;100.00
3590;BME280;1809;48.470;9.226;2022-11-20T13:20:06;96340.59;;;8.45;100.00
3590;BME280;1809;48.470;9.226;2022-11-20T13:22:44;96337.69;;;8.41;100.00
3590;BME280;1809;48.470;9.226;2022-11-20T13:25:25;96340.16;;;8.38;100.00
3590;BME280;1809;48.470;9.226;2022-11-20T13:27:51;96340.31;;;8.28;100.00
3590;BME280;1809;48.470;9.226;2022-11-20T13:30:28;96338.41;;;8.47;100.00
3590;BME280;1809;48.470;9.226;2022-11-20T13:32:56;96336.53;;;8.47;100.00
3590;BME280;1809;48.470;9.226;2022-11-20T13:35:30;96333.59;;;8.49;100.00
3590;BME280;1809;48.470;9.226;2022-11-20T13:38:14;96331.31;;;8.42;100.00
3590;BME280;1809;48.470;9.226;2022-11-20T13:43:28;96331.50;;;8.64;100.00
3590;BME280;1809;48.470;9.226;2022-11-20T13:46:00;96338.09;;;8.86;100.00
3590;BME280;1809;48.470;9.226;2022-11-20T13:48:49;96326.63;;;8.85;100.00
3590;BME280;1809;48.470;9.226;2022-11-20T13:59:49;96311.94;;;8.55;100.00
3590;BME280;1809;48.470;9.226;2022-11-20T14:02:19;96312.94;;;8.41;100.00
3590;BME280;1809;48.470;9.226;2022-11-20T14:04:49;96313.81;;;8.36;100.00
3590;BME280;1809;48.470;9.226;2022-11-20T14:07:18;96304.06;;;8.27;100.00
3590;BME280;1809;48.470;9.226;2022-11-20T14:09:58;96296.00;;;8.13;100.00
3590;BME280;1809;48.470;9.226;2022-11-20T14:12:28;96298.88;;;7.98;100.00
3590;BME280;1809;48.470;9.226;2022-11-20T14:14:55;96295.25;;;7.89;100.00
3590;BME280;1809;48.470;9.226;2022-11-20T14:17:23;96298.56;;;7.81;100.00
3590;BME280;1809;48.470;9.226;2022-11-20T14:19:51;96290.84;;;7.79;100.00
3590;BME280;1809;48.470;9.226;2022-11-20T14:22:25;96291.88;;;7.83;100.00
3590;BME280;1809;48.470;9.226;2022-11-20T14:27:40;96285.63;;;7.93;100.00
3590;BME280;1809;48.470;9.226;2022-11-20T14:30:15;96287.41;;;7.97;100.00
3590;BME280;1809;48.470;9.226;2022-11-20T14:32:43;96284.97;;;8.01;100.00
3590;BME280;1809;48.470;9.226;2022-11-20T14:35:24;96293.41;;;8.08;100.00
3590;BME280;1809;48.470;9.226;2022-11-20T14:37:50;96289.81;;;7.99;100.00
3590;BME280;1809;48.470;9.226;2022-11-20T14:40:29;96280.94;;;8.03;100.00
3590;BME280;1809;48.470;9.226;2022-11-20T14:42:56;96285.28;;;7.99;100.00
3590;BME280;1809;48.470;9.226;2022-11-20T14:45:22;96283.25;;;7.91;100.00
3590;BME280;1809;48.470;9.226;2022-11-20T14:47:49;96281.47;;;7.87;100.00
3590;BME280;1809;48.470;9.226;2022-11-20T14:50:23;96284.75;;;7.79;100.00
3590;BME280;1809;48.470;9.226;2022-11-20T14:53:00;96280.91;;;7.66;100.00
3590;BME280;1809;48.470;9.226;2022-11-20T14:57:56;96268.28;;;7.34;100.00
3590;BME280;1809;48.470;9.226;2022-11-20T15:00:23;96262.50;;;7.27;100.00